createdAt,value
2023-03-13T00:12:16.363Z,7.3
2023-03-13T00:27:25.840Z,6.4
2023-03-13T00:42:35.695Z,7
2023-03-13T00:57:45.261Z,5.8
2023-03-13T01:12:55.904Z,6.1
2023-03-13T01:28:05.592Z,5.7
2023-03-13T01:43:27.699Z,5.1
2023-03-13T01:58:37.951Z,5
2023-03-13T02:13:47.503Z,5.3
2023-03-13T02:28:56.512Z,5.8
2023-03-13T02:44:06.235Z,6.6
2023-03-13T02:59:15.686Z,5
2023-03-13T03:14:25.188Z,5.9
2023-03-13T03:29:34.417Z,5
2023-03-13T03:44:43.568Z,6.4
2023-03-13T03:59:52.939Z,5.2
2023-03-13T04:15:02.090Z,5.1
2023-03-13T04:30:11.877Z,5.4
2023-03-13T04:45:21.412Z,5.5
2023-03-13T05:00:30.884Z,5.4
2023-03-13T05:15:40.724Z,4.4
2023-03-13T05:30:50.543Z,4.6
2023-03-13T05:46:00.494Z,3.3
2023-03-13T06:01:10.984Z,3.9
2023-03-13T06:17:44.052Z,4.7
2023-03-13T06:32:54.962Z,3.4
2023-03-13T06:48:05.166Z,2.9
2023-03-13T07:03:16.109Z,2.7
2023-03-13T07:18:26.022Z,2.7
2023-03-13T07:33:36.499Z,2.9
2023-03-13T07:48:47.188Z,2.7
2023-03-13T08:03:56.959Z,3.1
2023-03-13T08:19:06.795Z,3.3
2023-03-13T08:34:17.849Z,3.7
2023-03-13T08:49:27.919Z,3.4
2023-03-13T09:04:37.738Z,3.4
2023-03-13T09:20:01.182Z,3.3
2023-03-13T09:35:11.827Z,2.6
2023-03-13T09:50:21.476Z,2.9
2023-03-13T10:05:31.726Z,3
2023-03-13T10:20:42.013Z,3
2023-03-13T10:35:52.016Z,3
2023-03-13T10:51:03.030Z,3.1
2023-03-13T11:06:13.516Z,3.6
2023-03-13T11:21:23.609Z,3.7
2023-03-13T11:36:33.700Z,2.9
2023-03-13T11:51:43.704Z,2.5
2023-03-13T12:06:54.219Z,3
2023-03-13T12:22:04.707Z,2.5
2023-03-13T12:37:15.517Z,2.3
2023-03-13T12:52:25.535Z,2
2023-03-13T13:07:34.993Z,1.8
2023-03-13T13:22:44.618Z,2.2
2023-03-13T13:37:54.220Z,1.8
2023-03-13T13:53:04.916Z,1.6
2023-03-13T14:08:14.706Z,1.7
2023-03-13T14:23:24.741Z,1.9
2023-03-13T14:38:34.077Z,1.5
2023-03-13T14:53:44.830Z,1.3
2023-03-13T15:08:54.302Z,1.4
2023-03-13T15:24:09.210Z,1.9
2023-03-13T15:39:19.020Z,1.6
2023-03-13T15:54:29.596Z,1.5
2023-03-13T16:09:39.575Z,1.3
2023-03-13T16:24:48.811Z,1.1
2023-03-13T16:39:58.978Z,1.4
2023-03-13T16:55:08.693Z,1.6
2023-03-13T17:10:19.230Z,1.4
2023-03-13T17:25:29.271Z,1.6
2023-03-13T17:40:39.087Z,1.7
2023-03-13T17:55:48.703Z,1.5
2023-03-13T18:10:58.559Z,2.8
2023-03-13T18:26:08.215Z,2
2023-03-13T18:41:17.289Z,2
2023-03-13T18:56:27.360Z,1.9
2023-03-13T19:11:36.765Z,1.7
2023-03-13T19:26:46.568Z,2
2023-03-13T19:41:58.771Z,2
2023-03-13T19:57:08.857Z,2
2023-03-13T20:12:19.040Z,2.3
2023-03-13T20:27:28.612Z,2
2023-03-13T20:42:45.714Z,2.2
2023-03-13T20:57:56.317Z,2
2023-03-13T21:13:11.182Z,2.1
2023-03-13T21:28:21.335Z,2.2
2023-03-13T21:43:31.229Z,2.3
2023-03-13T21:58:41.034Z,2.3
2023-03-13T22:13:50.863Z,2.8
2023-03-13T22:29:00.214Z,1.9
2023-03-13T22:44:09.807Z,2.3
2023-03-13T22:59:19.338Z,2.3
2023-03-13T23:14:29.104Z,2.3
2023-03-13T23:29:38.734Z,2.4
2023-03-13T23:44:48.132Z,2.4
